createdAt,value
2022-11-29T00:01:12.952Z,80.88
2022-11-29T00:03:40.819Z,81.09
2022-11-29T00:06:11.251Z,81.29
2022-11-29T00:08:39.530Z,81.47
2022-11-29T00:11:12.412Z,81.23
2022-11-29T00:13:40.444Z,81.33
2022-11-29T00:16:09.927Z,81.45
2022-11-29T00:18:37.853Z,81.42
2022-11-29T00:21:06.547Z,81.32
2022-11-29T00:23:34.926Z,80.88
2022-11-29T00:26:06.675Z,80.63
2022-11-29T00:28:35.463Z,81.22
2022-11-29T00:31:21.665Z,81.37
2022-11-29T00:33:50.048Z,81.47
2022-11-29T00:36:18.017Z,81.43
2022-11-29T00:38:45.985Z,81.40
2022-11-29T00:41:14.255Z,81.63
2022-11-29T00:43:42.089Z,81.74
2022-11-29T00:46:11.745Z,81.51
2022-11-29T00:48:39.653Z,81.45
2022-11-29T00:51:07.984Z,81.12
2022-11-29T00:53:36.463Z,80.94
2022-11-29T00:56:05.015Z,81.38
2022-11-29T00:58:33.630Z,81.47
2022-11-29T01:01:01.531Z,81.56
2022-11-29T01:03:29.467Z,81.03
2022-11-29T01:06:01.329Z,80.24
2022-11-29T01:08:29.301Z,80.33
2022-11-29T01:11:12.215Z,81.67
2022-11-29T01:13:40.491Z,81.26
2022-11-29T01:16:08.874Z,81.30
2022-11-29T01:18:37.353Z,81.80
2022-11-29T01:21:10.235Z,81.69
2022-11-29T01:23:38.483Z,81.38
2022-11-29T01:26:08.128Z,80.88
2022-11-29T01:28:37.111Z,80.50
2022-11-29T01:31:08.784Z,80.10
2022-11-29T01:33:37.045Z,80.20
2022-11-29T01:36:05.940Z,79.59
2022-11-29T01:38:34.109Z,79.16
2022-11-29T01:41:04.742Z,78.97
2022-11-29T01:43:33.436Z,78.69
2022-11-29T01:46:01.317Z,78.95
2022-11-29T01:48:31.215Z,78.97
2022-11-29T01:51:00.925Z,78.96
2022-11-29T01:53:28.997Z,78.85
2022-11-29T01:56:01.286Z,78.45
2022-11-29T01:58:29.352Z,78.27
2022-11-29T02:00:58.315Z,78.82
2022-11-29T02:03:26.610Z,79.31
2022-11-29T02:05:55.193Z,78.71
2022-11-29T02:08:29.921Z,78.17
2022-11-29T02:11:18.061Z,78.27
2022-11-29T02:13:59.240Z,78.45
2022-11-29T02:16:45.741Z,78.18
2022-11-29T02:19:22.728Z,77.53
2022-11-29T02:21:58.171Z,77.62
2022-11-29T02:24:47.283Z,77.49
2022-11-29T02:27:15.511Z,77.59
2022-11-29T02:30:02.221Z,77.78
2022-11-29T02:32:42.375Z,78.43
2022-11-29T02:35:19.459Z,78.85
2022-11-29T02:38:22.656Z,78.98
2022-11-29T02:40:53.390Z,79.07
2022-11-29T02:43:36.613Z,79.42
2022-11-29T02:46:04.621Z,79.15
2022-11-29T02:48:55.898Z,78.37
2022-11-29T02:51:32.658Z,79.10
2022-11-29T02:54:06.756Z,80.17
2022-11-29T02:56:37.472Z,80.44
2022-11-29T02:59:09.695Z,80.95
2022-11-29T03:01:55.821Z,81.23
2022-11-29T03:04:42.622Z,81.29
2022-11-29T03:07:15.625Z,81.37
2022-11-29T03:09:50.046Z,81.14
2022-11-29T03:12:17.818Z,80.80
2022-11-29T03:14:48.504Z,80.53
2022-11-29T03:17:19.561Z,80.35
2022-11-29T03:19:59.699Z,80.32
2022-11-29T03:22:36.781Z,80.60
2022-11-29T03:25:05.165Z,81.04
2022-11-29T03:27:44.277Z,81.55
2022-11-29T03:30:13.926Z,81.76
2022-11-29T03:32:50.870Z,82.02
2022-11-29T03:35:22.234Z,82.40
2022-11-29T03:38:08.740Z,82.56
2022-11-29T03:40:56.473Z,83.20
2022-11-29T03:43:30.665Z,83.88
2022-11-29T03:46:01.025Z,84.09
2022-11-29T03:48:37.885Z,83.95
2022-11-29T03:51:08.728Z,83.47
2022-11-29T03:53:45.190Z,83.14
2022-11-29T03:56:36.264Z,83.38
2022-11-29T03:59:20.048Z,83.34
2022-11-29T04:02:08.292Z,83.25
2022-11-29T04:04:48.341Z,83.07
2022-11-29T04:07:28.742Z,82.91
2022-11-29T04:10:15.005Z,82.76
2022-11-29T04:13:04.067Z,82.88
2022-11-29T04:15:44.383Z,82.74
2022-11-29T04:18:23.968Z,82.63
2022-11-29T04:20:51.853Z,82.51
2022-11-29T04:23:23.083Z,82.28
2022-11-29T04:26:06.305Z,82.20
2022-11-29T04:28:49.225Z,82.32
2022-11-29T04:31:37.218Z,82.49
2022-11-29T04:34:17.114Z,82.31
2022-11-29T04:36:47.752Z,82.50
2022-11-29T04:39:34.253Z,82.52
2022-11-29T04:42:08.259Z,82.65
2022-11-29T04:44:36.130Z,82.96
2022-11-29T04:47:04.101Z,83.24
2022-11-29T04:49:44.353Z,83.00
2022-11-29T04:52:15.088Z,82.61
2022-11-29T04:54:51.871Z,82.46
2022-11-29T04:57:27.512Z,82.60
2022-11-29T05:00:07.153Z,83.25
2022-11-29T05:02:55.786Z,84.08
2022-11-29T05:05:26.782Z,84.29
2022-11-29T05:08:13.668Z,84.36
2022-11-29T05:10:44.603Z,84.18
2022-11-29T05:13:31.214Z,83.78
2022-11-29T05:16:05.356Z,83.60
2022-11-29T05:18:36.367Z,83.31
2022-11-29T05:21:16.811Z,83.44
2022-11-29T05:23:53.602Z,83.47
2022-11-29T05:26:33.968Z,83.24
2022-11-29T05:29:05.315Z,83.17
2022-11-29T05:31:33.209Z,84.12
2022-11-29T05:34:03.926Z,83.31
2022-11-29T05:36:31.886Z,82.84
2022-11-29T05:39:08.963Z,82.74
2022-11-29T05:41:46.663Z,82.66
2022-11-29T05:44:23.783Z,82.68
2022-11-29T05:46:57.147Z,82.27
2022-11-29T05:49:43.748Z,82.05
2022-11-29T05:52:11.536Z,81.40
2022-11-29T05:54:48.807Z,80.83
2022-11-29T05:57:39.914Z,80.79
2022-11-29T06:00:11.058Z,80.65
2022-11-29T06:02:41.653Z,80.84
2022-11-29T06:05:13.681Z,80.99
2022-11-29T06:07:45.373Z,80.67
2022-11-29T06:10:21.151Z,80.55
2022-11-29T06:12:58.145Z,80.59
2022-11-29T06:15:50.741Z,80.61
2022-11-29T06:18:37.293Z,80.43
2022-11-29T06:21:05.164Z,80.34
2022-11-29T06:23:39.275Z,79.51
2022-11-29T06:26:10.015Z,79.50
2022-11-29T06:28:57.562Z,79.26
2022-11-29T06:31:32.109Z,78.71
2022-11-29T06:34:03.103Z,78.60
2022-11-29T06:36:43.051Z,78.59
2022-11-29T06:39:11.233Z,78.93
2022-11-29T06:41:39.200Z,79.13
2022-11-29T06:44:07.371Z,79.10
2022-11-29T06:46:44.997Z,78.99
2022-11-29T06:49:33.215Z,78.84
2022-11-29T06:52:07.425Z,78.63
2022-11-29T06:54:35.160Z,78.78
2022-11-29T06:57:08.799Z,78.75
2022-11-29T06:59:36.666Z,79.14
2022-11-29T07:02:04.682Z,78.77
2022-11-29T07:04:45.896Z,78.39
2022-11-29T07:07:18.696Z,78.21
2022-11-29T07:09:49.441Z,77.77
2022-11-29T07:12:18.016Z,77.54
2022-11-29T07:14:46.561Z,77.22
2022-11-29T07:17:30.053Z,76.32
2022-11-29T07:19:58.070Z,76.50
2022-11-29T07:22:35.750Z,75.86
2022-11-29T07:25:12.353Z,74.33
2022-11-29T07:27:52.522Z,71.41
2022-11-29T07:30:21.824Z,70.11
2022-11-29T07:33:04.541Z,68.90
2022-11-29T07:35:32.409Z,63.82
2022-11-29T07:38:10.300Z,60.97
2022-11-29T07:40:50.464Z,58.58
2022-11-29T07:43:27.959Z,58.14
2022-11-29T07:45:57.282Z,56.21
2022-11-29T07:48:25.326Z,55.28
2022-11-29T07:50:54.413Z,52.71
2022-11-29T07:53:23.112Z,51.03
2022-11-29T07:55:51.592Z,50.09
2022-11-29T07:58:19.720Z,49.06
2022-11-29T08:00:47.707Z,48.41
2022-11-29T08:03:15.706Z,48.22
2022-11-29T08:05:45.677Z,45.39
2022-11-29T08:08:13.908Z,44.20
2022-11-29T08:10:41.975Z,42.43
2022-11-29T08:13:09.882Z,43.50
2022-11-29T08:15:43.340Z,42.29
2022-11-29T08:18:11.306Z,44.58
2022-11-29T08:20:41.328Z,39.80
2022-11-29T08:23:10.858Z,39.41
2022-11-29T08:25:38.853Z,38.86
2022-11-29T08:28:06.866Z,37.91
2022-11-29T08:30:34.948Z,38.70
2022-11-29T08:33:02.810Z,37.66
2022-11-29T08:35:31.186Z,37.40
2022-11-29T08:37:59.088Z,35.76
2022-11-29T08:40:27.024Z,36.99
2022-11-29T08:42:57.557Z,34.62
2022-11-29T08:45:25.560Z,34.27
2022-11-29T08:47:53.496Z,36.08
2022-11-29T08:50:21.670Z,34.32
2022-11-29T08:53:08.483Z,32.89
2022-11-29T08:55:42.949Z,31.06
2022-11-29T08:58:13.024Z,30.38
2022-11-29T09:00:41.557Z,30.19
2022-11-29T09:03:28.321Z,29.30
2022-11-29T09:05:57.739Z,28.46
2022-11-29T09:08:25.680Z,28.32
2022-11-29T09:10:53.549Z,27.98
2022-11-29T09:13:21.405Z,27.68
2022-11-29T09:15:49.488Z,27.42
2022-11-29T09:18:17.459Z,27.76
2022-11-29T09:20:45.430Z,27.44
2022-11-29T09:23:13.598Z,26.67
2022-11-29T09:25:41.470Z,25.78
2022-11-29T09:28:09.544Z,26.03
2022-11-29T09:30:38.288Z,25.83
2022-11-29T09:33:06.308Z,25.67
2022-11-29T09:35:34.905Z,25.12
2022-11-29T09:38:02.855Z,25.11
2022-11-29T09:40:39.013Z,25.64
2022-11-29T09:43:15.276Z,25.74
2022-11-29T09:45:46.670Z,25.99
2022-11-29T09:48:29.384Z,25.83
2022-11-29T09:51:17.631Z,26.20
2022-11-29T09:54:00.202Z,27.25
2022-11-29T09:56:32.165Z,27.84
2022-11-29T09:59:02.716Z,27.70
2022-11-29T10:01:37.738Z,28.25
2022-11-29T10:04:09.668Z,28.19
2022-11-29T10:06:43.399Z,27.46
2022-11-29T10:09:22.633Z,26.90
2022-11-29T10:12:02.785Z,27.80
2022-11-29T10:14:46.615Z,27.61
2022-11-29T10:17:14.706Z,26.51
2022-11-29T10:19:46.148Z,26.19
2022-11-29T10:22:25.970Z,26.76
2022-11-29T10:24:57.582Z,26.75
2022-11-29T10:27:29.722Z,27.79
2022-11-29T10:30:01.068Z,28.44
2022-11-29T10:32:32.004Z,26.88
2022-11-29T10:35:01.731Z,26.62
2022-11-29T10:37:32.885Z,25.94
2022-11-29T10:40:04.391Z,25.82
2022-11-29T10:42:53.282Z,25.52
2022-11-29T10:45:34.058Z,25.77
2022-11-29T10:48:03.545Z,25.18
2022-11-29T10:50:33.766Z,24.16
2022-11-29T10:53:06.633Z,23.91
2022-11-29T10:55:45.781Z,22.94
2022-11-29T10:58:22.108Z,22.33
2022-11-29T11:00:59.599Z,21.87
2022-11-29T11:03:30.792Z,20.98
2022-11-29T11:06:01.531Z,20.36
2022-11-29T11:08:30.820Z,20.20
2022-11-29T11:11:01.760Z,20.42
2022-11-29T11:13:31.427Z,20.70
2022-11-29T11:15:59.336Z,19.84
2022-11-29T11:18:29.308Z,19.86
2022-11-29T11:20:58.659Z,19.67
2022-11-29T11:23:29.184Z,19.34
2022-11-29T11:26:05.242Z,19.16
2022-11-29T11:28:33.077Z,18.61
2022-11-29T11:31:06.037Z,18.11
2022-11-29T11:33:44.001Z,17.47
2022-11-29T11:36:21.291Z,17.07
2022-11-29T11:38:51.924Z,16.92
2022-11-29T11:41:22.242Z,16.77
2022-11-29T11:43:55.440Z,16.61
2022-11-29T11:46:23.943Z,16.48
2022-11-29T11:48:51.989Z,16.65
2022-11-29T11:51:25.390Z,16.78
2022-11-29T11:53:56.534Z,16.88
2022-11-29T11:56:25.323Z,15.85
2022-11-29T11:58:54.723Z,16.12
2022-11-29T12:01:30.881Z,16.60
2022-11-29T12:04:02.077Z,16.01
2022-11-29T12:06:38.926Z,16.68
2022-11-29T12:09:10.298Z,16.36
2022-11-29T12:11:46.340Z,16.31
2022-11-29T12:14:24.220Z,16.40
2022-11-29T12:16:55.718Z,16.57
2022-11-29T12:19:26.807Z,16.45
2022-11-29T12:21:59.904Z,16.94
2022-11-29T12:24:31.719Z,16.18
2022-11-29T12:27:03.699Z,16.08
2022-11-29T12:29:35.274Z,16.00
2022-11-29T12:32:06.010Z,16.07
2022-11-29T12:34:49.301Z,15.90
2022-11-29T12:37:38.505Z,15.82
2022-11-29T12:40:18.484Z,15.93
2022-11-29T12:42:46.433Z,16.10
2022-11-29T12:45:24.027Z,15.96
2022-11-29T12:48:10.429Z,15.87
2022-11-29T12:50:44.338Z,15.97
2022-11-29T12:53:27.511Z,16.09
2022-11-29T12:56:04.956Z,15.76
2022-11-29T12:58:32.817Z,15.94
2022-11-29T13:01:00.785Z,16.06
2022-11-29T13:03:38.902Z,16.20
2022-11-29T13:06:25.191Z,16.36
2022-11-29T13:09:05.357Z,16.21
2022-11-29T13:11:36.400Z,16.62
2022-11-29T13:14:34.657Z,17.36
2022-11-29T13:16:57.107Z,17.30
2022-11-29T13:19:30.303Z,17.30
2022-11-29T13:21:58.276Z,17.72
2022-11-29T13:24:31.671Z,18.16
2022-11-29T13:27:02.304Z,19.26
2022-11-29T13:29:30.270Z,20.53
2022-11-29T13:31:58.645Z,21.63
2022-11-29T13:34:36.930Z,22.97
2022-11-29T13:37:15.378Z,24.22
2022-11-29T13:39:52.392Z,25.31
2022-11-29T13:42:37.629Z,26.81
2022-11-29T13:45:24.340Z,28.17
2022-11-29T13:47:53.852Z,29.28
2022-11-29T13:50:36.360Z,30.47
2022-11-29T13:53:15.798Z,31.57
2022-11-29T13:55:48.580Z,32.70
2022-11-29T13:58:22.601Z,34.03
2022-11-29T14:00:51.799Z,34.45
2022-11-29T14:03:19.713Z,35.44
2022-11-29T14:05:49.270Z,37.33
2022-11-29T14:08:23.278Z,38.18
2022-11-29T14:10:52.364Z,38.15
2022-11-29T14:13:22.897Z,38.52
2022-11-29T14:15:55.416Z,39.49
2022-11-29T14:18:40.746Z,40.01
2022-11-29T14:21:08.931Z,41.33
2022-11-29T14:23:36.754Z,41.63
2022-11-29T14:26:04.661Z,41.58
2022-11-29T14:28:33.547Z,42.27
2022-11-29T14:31:02.421Z,42.63
2022-11-29T14:33:37.589Z,43.02
2022-11-29T14:36:19.471Z,43.61
2022-11-29T14:38:47.273Z,44.26
2022-11-29T14:41:33.433Z,45.10
2022-11-29T14:44:18.887Z,45.97
2022-11-29T14:46:48.183Z,47.01
2022-11-29T14:49:26.632Z,47.38
2022-11-29T14:52:09.758Z,48.18
2022-11-29T14:54:54.683Z,48.91
2022-11-29T14:57:43.479Z,49.01
2022-11-29T15:00:12.784Z,49.49
2022-11-29T15:02:53.112Z,49.74
2022-11-29T15:05:24.691Z,50.36
2022-11-29T15:08:16.320Z,51.04
2022-11-29T15:10:51.861Z,51.45
2022-11-29T15:13:31.924Z,51.63
2022-11-29T15:16:18.432Z,51.95
2022-11-29T15:19:05.030Z,52.34
2022-11-29T15:22:07.379Z,52.62
2022-11-29T15:24:53.904Z,53.20
2022-11-29T15:27:22.286Z,53.77
2022-11-29T15:29:50.668Z,54.27
2022-11-29T15:32:23.754Z,54.97
2022-11-29T15:34:53.568Z,54.88
2022-11-29T15:37:38.839Z,55.06
2022-11-29T15:40:07.223Z,55.25
2022-11-29T15:42:39.085Z,55.35
2022-11-29T15:45:25.412Z,55.64
2022-11-29T15:47:53.607Z,56.30
2022-11-29T15:50:32.079Z,56.30
2022-11-29T15:53:03.528Z,56.54
2022-11-29T15:55:32.003Z,57.46
2022-11-29T15:58:05.506Z,57.95
2022-11-29T16:00:36.954Z,58.28
2022-11-29T16:03:05.537Z,58.50
2022-11-29T16:05:35.666Z,58.05
2022-11-29T16:08:04.635Z,56.93
2022-11-29T16:10:35.357Z,56.77
2022-11-29T16:13:26.088Z,57.75
2022-11-29T16:16:09.452Z,56.82
2022-11-29T16:18:40.785Z,59.34
2022-11-29T16:21:21.912Z,59.82
2022-11-29T16:23:50.182Z,61.40
2022-11-29T16:26:19.903Z,61.72
2022-11-29T16:28:49.447Z,62.07
2022-11-29T16:31:18.919Z,62.13
2022-11-29T16:33:49.179Z,61.92
2022-11-29T16:36:20.511Z,61.88
2022-11-29T16:38:57.130Z,62.49
2022-11-29T16:41:32.779Z,62.88
2022-11-29T16:44:03.372Z,62.91
2022-11-29T16:46:40.140Z,63.26
2022-11-29T16:49:26.679Z,63.25
2022-11-29T16:51:54.910Z,63.35
2022-11-29T16:54:22.890Z,63.43
2022-11-29T16:56:52.035Z,63.76
2022-11-29T16:59:27.228Z,63.96
2022-11-29T17:01:56.432Z,64.45
2022-11-29T17:04:25.367Z,64.62
2022-11-29T17:06:57.388Z,64.78
2022-11-29T17:09:26.815Z,64.78
2022-11-29T17:11:55.171Z,64.15
2022-11-29T17:14:23.240Z,63.66
2022-11-29T17:16:52.276Z,63.29
2022-11-29T17:19:22.916Z,64.49
2022-11-29T17:21:51.651Z,64.93
2022-11-29T17:24:20.644Z,65.17
2022-11-29T17:26:49.127Z,65.36
2022-11-29T17:29:18.123Z,65.34
2022-11-29T17:31:47.019Z,65.69
2022-11-29T17:34:14.984Z,65.66
2022-11-29T17:36:42.848Z,65.85
2022-11-29T17:39:10.825Z,65.10
2022-11-29T17:41:38.684Z,65.97
2022-11-29T17:44:06.551Z,66.70
2022-11-29T17:46:35.988Z,65.10
2022-11-29T17:49:05.565Z,66.21
2022-11-29T17:54:22.751Z,67.79
2022-11-29T17:56:51.180Z,68.34
2022-11-29T17:59:19.149Z,68.58
2022-11-29T18:01:47.498Z,68.77
2022-11-29T18:04:15.544Z,68.35
2022-11-29T18:06:43.976Z,67.71
2022-11-29T18:09:11.951Z,67.95
2022-11-29T18:11:47.417Z,68.73
2022-11-29T18:14:28.394Z,69.09
2022-11-29T18:16:56.544Z,69.21
2022-11-29T18:19:25.551Z,69.35
2022-11-29T18:21:53.501Z,69.36
2022-11-29T18:24:21.378Z,67.80
2022-11-29T18:26:49.347Z,69.07
2022-11-29T18:29:17.312Z,69.15
2022-11-29T18:31:46.156Z,69.26
2022-11-29T18:34:15.202Z,69.77
2022-11-29T18:36:44.501Z,69.89
2022-11-29T18:39:14.311Z,70.24
2022-11-29T18:41:43.417Z,70.34
2022-11-29T18:44:13.153Z,70.29
2022-11-29T18:46:43.170Z,70.21
2022-11-29T18:49:12.332Z,70.04
2022-11-29T18:51:42.349Z,70.48
2022-11-29T18:54:10.501Z,70.29
2022-11-29T18:56:38.795Z,70.36
2022-11-29T18:59:11.378Z,70.73
2022-11-29T19:01:43.313Z,70.84
2022-11-29T19:04:13.868Z,70.67
2022-11-29T19:06:42.769Z,71.20
2022-11-29T19:09:14.925Z,70.55
2022-11-29T19:11:43.712Z,70.96
2022-11-29T19:14:12.890Z,71.38
2022-11-29T19:16:42.525Z,71.69
2022-11-29T19:19:10.905Z,71.76
2022-11-29T19:21:40.252Z,72.05
2022-11-29T19:24:14.075Z,72.03
2022-11-29T19:26:46.327Z,71.85
2022-11-29T19:29:14.762Z,71.76
2022-11-29T19:31:43.241Z,71.66
2022-11-29T19:34:11.209Z,71.79
2022-11-29T19:36:43.979Z,71.87
2022-11-29T19:39:14.127Z,71.95
2022-11-29T19:41:43.830Z,72.06
2022-11-29T19:44:12.098Z,71.91
2022-11-29T19:46:41.634Z,70.57
2022-11-29T19:49:09.986Z,70.11
2022-11-29T19:51:37.890Z,72.14
2022-11-29T19:54:06.948Z,72.13
2022-11-29T19:56:34.810Z,72.36
2022-11-29T19:59:02.888Z,73.24
2022-11-29T20:01:39.319Z,73.87
2022-11-29T20:04:08.551Z,74.30
2022-11-29T20:06:36.676Z,74.57
2022-11-29T20:09:04.900Z,74.58
2022-11-29T20:11:32.974Z,74.56
2022-11-29T20:14:01.567Z,74.43
2022-11-29T20:16:30.105Z,74.41
2022-11-29T20:18:58.658Z,74.13
2022-11-29T20:21:28.387Z,73.69
2022-11-29T20:23:57.333Z,73.27
2022-11-29T20:26:25.295Z,73.34
2022-11-29T20:28:53.202Z,73.02
2022-11-29T20:31:23.274Z,73.07
2022-11-29T20:33:52.614Z,73.09
2022-11-29T20:36:20.660Z,73.43
2022-11-29T20:38:53.133Z,73.87
2022-11-29T20:41:25.094Z,73.96
2022-11-29T20:43:53.060Z,73.77
2022-11-29T20:46:21.724Z,73.30
2022-11-29T20:48:51.062Z,72.61
2022-11-29T20:51:19.938Z,72.13
2022-11-29T20:53:48.733Z,72.68
2022-11-29T20:56:16.802Z,72.94
2022-11-29T20:58:44.710Z,73.35
2022-11-29T21:01:12.681Z,73.39
2022-11-29T21:03:40.773Z,73.07
2022-11-29T21:06:08.789Z,73.31
2022-11-29T21:08:37.056Z,73.94
2022-11-29T21:11:07.277Z,74.27
2022-11-29T21:13:35.766Z,74.31
2022-11-29T21:16:03.981Z,73.96
2022-11-29T21:18:32.387Z,73.80
2022-11-29T21:21:10.110Z,73.84
2022-11-29T21:23:52.462Z,73.78
2022-11-29T21:26:27.189Z,73.74
2022-11-29T21:29:05.577Z,73.24
2022-11-29T21:31:33.775Z,73.38
2022-11-29T21:34:01.914Z,73.17
2022-11-29T21:36:30.187Z,73.68
2022-11-29T21:39:03.659Z,73.62
2022-11-29T21:41:33.405Z,73.16
2022-11-29T21:44:08.978Z,73.24
2022-11-29T21:46:37.003Z,73.64
2022-11-29T21:49:05.088Z,73.96
2022-11-29T21:51:33.577Z,74.35
2022-11-29T21:54:02.266Z,74.48
2022-11-29T21:56:30.520Z,74.47
2022-11-29T21:58:58.395Z,74.22
2022-11-29T22:01:27.660Z,74.12
2022-11-29T22:03:56.180Z,74.13
2022-11-29T22:06:28.045Z,74.25
2022-11-29T22:08:56.319Z,74.48
2022-11-29T22:11:36.788Z,74.78
2022-11-29T22:14:18.509Z,74.94
2022-11-29T22:16:57.398Z,75.06
2022-11-29T22:19:26.804Z,75.18
2022-11-29T22:21:57.944Z,75.77
2022-11-29T22:24:27.053Z,75.84
2022-11-29T22:26:55.852Z,75.77
2022-11-29T22:29:24.514Z,75.32
2022-11-29T22:31:53.302Z,74.81
2022-11-29T22:34:21.994Z,74.60
2022-11-29T22:36:49.961Z,74.66
2022-11-29T22:39:17.827Z,74.54
2022-11-29T22:41:52.313Z,74.83
2022-11-29T22:44:22.880Z,74.88
2022-11-29T22:46:51.008Z,74.46
2022-11-29T22:49:19.027Z,73.78
2022-11-29T22:51:46.968Z,72.04
2022-11-29T22:54:18.143Z,71.85
2022-11-29T22:56:46.002Z,70.51
2022-11-29T22:59:14.296Z,70.76
2022-11-29T23:01:42.578Z,73.36
2022-11-29T23:04:11.758Z,75.34
2022-11-29T23:06:44.142Z,76.45
2022-11-29T23:09:16.933Z,76.78
2022-11-29T23:11:45.906Z,76.76
2022-11-29T23:14:13.979Z,77.05
2022-11-29T23:16:43.045Z,76.70
2022-11-29T23:19:11.481Z,76.37
2022-11-29T23:21:40.136Z,76.66
2022-11-29T23:24:08.207Z,76.86
2022-11-29T23:26:37.611Z,76.68
2022-11-29T23:29:25.756Z,76.23
2022-11-29T23:31:53.650Z,75.46
2022-11-29T23:34:21.693Z,75.34
2022-11-29T23:36:52.887Z,75.46
2022-11-29T23:39:21.317Z,75.15
2022-11-29T23:41:49.184Z,74.97
2022-11-29T23:44:17.159Z,75.12
2022-11-29T23:46:45.326Z,75.02
2022-11-29T23:49:13.306Z,75.17
2022-11-29T23:51:41.164Z,75.37
2022-11-29T23:54:09.240Z,75.69
2022-11-29T23:56:37.209Z,75.48
2022-11-29T23:59:05.123Z,75.45
